Time;durP1;ratioP1;P1;durP2;ratioP2;P2;SDS_P1;SDS_P2;PMS_P1;PMS_P2;Temp;Humidity;BMP_temperature;BMP_pressure;BME280_temperature;BME280_humidity;BME280_pressure;Samples;Min_cycle;Max_cycle;Signal;HPM_P1;HPM_P2
2022/05/12 00:00:43;;;;;;;6.95;1.70;;;;;;;13.59;69.74;101311.81;4917056;29;20044;-90
2022/05/12 00:03:08;;;;;;;6.25;1.73;;;;;;;13.55;69.93;101317.47;4929937;29;20548;-90
2022/05/12 00:05:34;;;;;;;5.68;1.70;;;;;;;13.42;70.28;101321.09;4910307;29;20035;-90
2022/05/12 00:07:59;;;;;;;9.90;1.77;;;;;;;13.33;70.51;101320.97;4902266;29;20189;-90
2022/05/12 00:10:25;;;;;;;9.27;2.15;;;;;;;13.30;70.81;101326.50;4916360;29;20032;-90
2022/05/12 00:12:52;;;;;;;8.05;2.03;;;;;;;13.26;70.71;101330.34;4897913;29;20504;-90
2022/05/12 00:15:22;;;;;;;6.65;1.95;;;;;;;13.22;70.95;101329.75;4898977;29;20032;-90
2022/05/12 00:17:47;;;;;;;6.20;1.55;;;;;;;13.21;71.08;101327.19;4898353;29;20039;-90
2022/05/12 00:20:16;;;;;;;5.57;1.90;;;;;;;13.14;71.14;101327.63;4930504;29;20024;-90
2022/05/12 00:22:42;;;;;;;7.15;1.80;;;;;;;13.14;70.83;101335.56;4899330;29;20111;-90
2022/05/12 00:25:13;;;;;;;7.68;2.20;;;;;;;13.06;71.20;101334.47;4924446;29;20023;-91
2022/05/12 00:27:38;;;;;;;4.93;1.98;;;;;;;13.03;71.85;101337.34;4912061;29;20028;-90
2022/05/12 00:30:05;;;;;;;4.28;1.50;;;;;;;12.96;71.75;101344.06;4898001;29;20095;-90
2022/05/12 00:32:30;;;;;;;7.07;2.10;;;;;;;12.90;71.93;101340.09;4915705;29;20034;-90
2022/05/12 00:34:56;;;;;;;5.43;1.95;;;;;;;12.86;71.91;101343.94;4916041;29;20459;-90
2022/05/12 00:37:21;;;;;;;7.40;1.98;;;;;;;12.83;71.93;101355.56;4915866;29;20481;-90
2022/05/12 00:39:46;;;;;;;4.85;2.00;;;;;;;12.76;72.74;101356.97;4898533;29;20124;-90
2022/05/12 00:42:12;;;;;;;6.85;1.70;;;;;;;12.69;73.16;101352.25;4897828;29;20481;-90
2022/05/12 00:44:37;;;;;;;6.03;2.00;;;;;;;12.67;73.39;101359.44;4916603;29;20433;-90
2022/05/12 00:47:03;;;;;;;4.43;1.70;;;;;;;12.62;73.32;101351.88;4914366;29;20060;-90
2022/05/12 00:49:34;;;;;;;7.45;1.90;;;;;;;12.63;73.10;101352.72;4916533;29;20072;-90
2022/05/12 00:52:18;;;;;;;6.18;1.77;;;;;;;12.61;72.82;101354.63;4914216;29;20028;-90
2022/05/12 00:55:24;;;;;;;3.13;1.58;;;;;;;12.63;72.71;101360.63;4914236;29;20075;-90
2022/05/12 00:57:52;;;;;;;3.95;1.65;;;;;;;12.54;73.79;101368.28;4905669;29;20091;-90
2022/05/12 01:00:19;;;;;;;5.50;1.60;;;;;;;12.51;74.16;101375.59;4932811;29;20027;-90
2022/05/12 01:02:48;;;;;;;6.82;1.90;;;;;;;12.48;74.24;101374.03;4931367;29;20028;-90
2022/05/12 01:05:15;;;;;;;6.90;1.88;;;;;;;12.42;74.25;101371.84;4933696;29;20059;-90
2022/05/12 01:07:41;;;;;;;4.70;1.67;;;;;;;12.39;74.73;101374.66;4917135;29;20034;-90
2022/05/12 01:10:09;;;;;;;6.38;2.00;;;;;;;12.38;74.81;101380.91;4935096;29;20035;-89
2022/05/12 01:12:37;;;;;;;4.38;1.90;;;;;;;12.34;75.05;101384.72;4918337;29;20087;-90
2022/05/12 01:15:03;;;;;;;8.63;2.08;;;;;;;12.32;75.62;101381.34;4934259;29;20067;-91
2022/05/12 01:17:28;;;;;;;6.45;2.10;;;;;;;12.32;75.32;101385.78;4934577;29;20036;-91
2022/05/12 01:19:54;;;;;;;9.80;2.30;;;;;;;12.27;75.18;101394.03;4933880;29;20091;-90
2022/05/12 01:22:39;;;;;;;8.57;2.60;;;;;;;12.25;74.97;101395.94;4913982;29;20042;-90
2022/05/12 01:25:16;;;;;;;6.60;2.25;;;;;;;12.19;75.87;101391.13;4915969;29;20377;-90
2022/05/12 01:27:42;;;;;;;9.45;2.38;;;;;;;12.14;76.29;101393.25;4916915;29;20062;-90
2022/05/12 01:30:09;;;;;;;9.45;2.38;;;;;;;12.14;76.63;101401.16;4918651;29;20024;-91
2022/05/12 01:32:35;;;;;;;11.63;3.20;;;;;;;12.05;77.34;101405.31;4935365;29;20035;-90
2022/05/12 01:35:00;;;;;;;11.68;2.83;;;;;;;12.02;77.14;101402.06;4934058;29;20134;-90
2022/05/12 01:37:25;;;;;;;10.32;3.03;;;;;;;12.01;77.46;101408.25;4932116;29;20387;-90
2022/05/12 01:39:51;;;;;;;7.18;2.15;;;;;;;12.00;77.29;101411.84;4932469;29;20031;-90
2022/05/12 01:42:17;;;;;;;7.43;2.65;;;;;;;11.98;77.12;101408.47;4933375;29;20035;-90
2022/05/12 01:44:42;;;;;;;11.18;3.38;;;;;;;11.93;77.58;101421.97;4916981;29;20035;-90
2022/05/12 01:47:09;;;;;;;9.48;2.75;;;;;;;11.83;78.11;101421.78;4933515;29;20078;-91
2022/05/12 01:49:35;;;;;;;10.55;2.67;;;;;;;11.80;77.94;101427.28;4933289;29;20023;-90
2022/05/12 01:52:01;;;;;;;5.70;2.60;;;;;;;11.78;78.00;101423.91;4932691;29;20080;-90
2022/05/12 01:54:27;;;;;;;9.65;2.58;;;;;;;11.75;77.80;101428.53;4902210;29;20036;-90
2022/05/12 01:56:53;;;;;;;12.98;2.95;;;;;;;11.74;78.18;101427.69;4917947;29;20044;-90
2022/05/12 01:59:18;;;;;;;10.07;2.75;;;;;;;11.71;78.17;101434.97;4927528;29;20445;-91
2022/05/12 02:01:48;;;;;;;7.03;2.90;;;;;;;11.67;78.70;101444.88;4931002;29;20036;-90
2022/05/12 02:04:14;;;;;;;10.75;2.80;;;;;;;11.65;77.93;101443.28;4929540;29;20034;-90
2022/05/12 02:06:41;;;;;;;12.15;3.17;;;;;;;11.60;78.14;101441.78;4932750;29;20036;-91
2022/05/12 02:09:07;;;;;;;9.93;2.67;;;;;;;11.58;78.51;101454.22;4933927;29;20157;-90
2022/05/12 02:11:33;;;;;;;8.15;2.45;;;;;;;11.55;78.81;101448.31;4916460;29;20498;-90
2022/05/12 02:13:59;;;;;;;10.05;2.80;;;;;;;11.51;78.83;101447.69;4932132;29;20039;-91
2022/05/12 02:16:25;;;;;;;11.70;3.05;;;;;;;11.53;78.65;101455.50;4915778;29;20027;-91
2022/05/12 02:18:54;;;;;;;11.50;3.05;;;;;;;11.52;78.87;101464.34;4915265;29;20118;-90
2022/05/12 02:21:20;;;;;;;7.03;2.72;;;;;;;11.49;78.91;101464.56;4932416;29;20027;-90
2022/05/12 02:23:46;;;;;;;11.40;2.53;;;;;;;11.47;78.62;101471.72;4933588;29;20493;-90
2022/05/12 02:26:12;;;;;;;8.63;2.38;;;;;;;11.44;78.61;101466.66;4931801;29;20120;-90
2022/05/12 02:28:37;;;;;;;12.88;2.83;;;;;;;11.37;78.72;101470.66;4917328;29;20027;-90
2022/05/12 02:31:06;;;;;;;9.25;2.67;;;;;;;11.37;79.02;101475.94;4915193;29;20031;-90
2022/05/12 02:33:31;;;;;;;11.30;2.88;;;;;;;11.34;78.86;101476.16;4932570;29;20028;-90
2022/05/12 02:35:57;;;;;;;11.10;2.75;;;;;;;11.28;79.33;101480.03;4915259;29;20043;-90
2022/05/12 02:38:22;;;;;;;11.02;2.92;;;;;;;11.24;79.29;101481.19;4915770;29;20038;-90
2022/05/12 02:40:48;;;;;;;12.13;2.97;;;;;;;11.19;79.68;101483.25;4933045;29;20099;-90
2022/05/12 02:43:23;;;;;;;10.95;2.85;;;;;;;11.13;79.47;101479.25;4933070;29;20028;-90
2022/05/12 02:46:04;;;;;;;8.25;2.85;;;;;;;11.11;79.23;101490.84;4932414;29;20392;-90
2022/05/12 02:48:33;;;;;;;9.05;2.90;;;;;;;11.08;79.51;101488.41;4916017;29;20139;-90
2022/05/12 02:50:59;;;;;;;10.13;3.28;;;;;;;10.99;80.18;101487.22;4931701;29;20028;-90
2022/05/12 02:53:25;;;;;;;6.95;3.03;;;;;;;11.02;80.07;101492.28;4931938;29;20035;-90
2022/05/12 02:55:51;;;;;;;12.13;3.03;;;;;;;10.97;80.57;101497.00;4932702;29;20099;-90
2022/05/12 02:58:17;;;;;;;9.57;3.03;;;;;;;10.91;80.79;101500.03;4932537;29;20160;-90
2022/05/12 03:00:43;;;;;;;12.80;3.60;;;;;;;10.86;81.21;101502.13;4930249;29;20389;-90
2022/05/12 03:03:08;;;;;;;10.98;3.67;;;;;;;10.82;81.10;101495.38;4931411;29;20045;-90
2022/05/12 03:05:35;;;;;;;11.23;3.50;;;;;;;10.79;81.18;101495.56;4921020;29;20162;-90
2022/05/12 03:08:01;;;;;;;11.55;3.90;;;;;;;10.77;81.62;101507.97;4930484;29;20028;-90
2022/05/12 03:10:27;;;;;;;8.20;3.40;;;;;;;10.73;81.72;101506.47;4932668;29;20024;-90
2022/05/12 03:12:53;;;;;;;10.35;3.58;;;;;;;10.71;81.10;101511.00;4931363;29;20023;-91
2022/05/12 03:15:19;;;;;;;11.88;4.25;;;;;;;10.66;81.96;101522.66;4931450;29;20032;-90
2022/05/12 03:17:45;;;;;;;12.10;4.45;;;;;;;10.65;82.22;101517.50;4915520;29;20457;-90
2022/05/12 03:20:15;;;;;;;15.55;4.78;;;;;;;10.63;82.54;101516.75;4932800;29;20035;-90
2022/05/12 03:22:41;;;;;;;12.70;4.53;;;;;;;10.60;82.72;101520.44;4913923;29;20039;-90
2022/05/12 03:25:10;;;;;;;14.02;5.18;;;;;;;10.53;83.11;101524.41;4931924;29;20032;-90
2022/05/12 03:27:35;;;;;;;15.02;4.90;;;;;;;10.51;83.54;101517.53;4931226;29;20031;-90
2022/05/12 03:30:02;;;;;;;15.95;5.72;;;;;;;10.50;83.80;101516.69;4932453;29;20031;-90
2022/05/12 03:32:27;;;;;;;15.75;6.10;;;;;;;10.46;83.89;101525.72;4932224;29;20032;-90
2022/05/12 03:34:53;;;;;;;15.82;6.25;;;;;;;10.42;84.03;101529.50;4924767;29;20076;-90
2022/05/12 03:37:18;;;;;;;17.15;6.28;;;;;;;10.41;84.30;101533.06;4932667;29;20507;-90
2022/05/12 03:39:44;;;;;;;17.63;6.07;;;;;;;10.37;84.11;101531.53;4929945;29;20055;-90
2022/05/12 03:42:15;;;;;;;16.90;6.85;;;;;;;10.40;84.34;101543.66;4930970;29;20114;-90
2022/05/12 03:44:46;;;;;;;18.88;6.80;;;;;;;10.37;84.13;101542.06;4932603;29;20027;-90
2022/05/12 03:47:14;;;;;;;17.88;7.03;;;;;;;10.36;85.06;101550.88;4915104;29;20091;-90
2022/05/12 03:49:41;;;;;;;21.42;7.75;;;;;;;10.30;85.07;101546.00;4931541;29;20075;-90
2022/05/12 03:52:07;;;;;;;22.50;7.45;;;;;;;10.36;85.21;101550.88;4932217;29;20107;-90
2022/05/12 03:54:33;;;;;;;21.40;7.80;;;;;;;10.34;85.23;101552.75;4930630;29;20024;-90
2022/05/12 03:56:59;;;;;;;22.75;8.00;;;;;;;10.34;85.91;101558.88;4930449;29;20784;-90
2022/05/12 03:59:24;;;;;;;18.30;7.78;;;;;;;10.30;85.93;101565.25;4930429;29;20078;-90
2022/05/12 04:01:50;;;;;;;28.40;9.23;;;;;;;10.29;86.51;101560.94;4930244;29;20028;-90
2022/05/12 04:04:15;;;;;;;19.50;9.40;;;;;;;10.27;86.61;101560.19;4931510;29;20075;-90
2022/05/12 04:06:42;;;;;;;23.02;9.02;;;;;;;10.26;86.58;101561.13;4927007;29;20084;-90
2022/05/12 04:09:07;;;;;;;19.83;9.55;;;;;;;10.28;86.93;101568.94;4912741;29;20028;-90
2022/05/12 04:11:33;;;;;;;23.27;9.80;;;;;;;10.26;87.29;101574.28;4931097;29;20031;-90
2022/05/12 04:13:59;;;;;;;25.40;10.20;;;;;;;10.27;87.08;101575.97;4913475;29;20024;-90
2022/05/12 04:16:24;;;;;;;22.67;10.85;;;;;;;10.27;87.66;101573.34;4931337;29;20091;-90
2022/05/12 04:18:50;;;;;;;23.65;10.70;;;;;;;10.29;87.39;101582.00;4926416;29;20087;-90
2022/05/12 04:21:16;;;;;;;23.08;11.95;;;;;;;10.30;87.79;101588.94;4930986;29;20031;-90
2022/05/12 04:23:42;;;;;;;23.40;11.52;;;;;;;10.33;88.15;101588.75;4914505;29;20070;-90
2022/05/12 04:26:08;;;;;;;27.13;12.75;;;;;;;10.30;88.32;101582.84;4928934;29;20038;-90
2022/05/12 04:28:33;;;;;;;22.77;12.68;;;;;;;10.32;88.46;101602.00;4914495;29;20028;-90
2022/05/12 04:30:59;;;;;;;23.27;12.23;;;;;;;10.35;88.76;101604.44;4929408;29;20309;-90
2022/05/12 04:36:08;;;;;;;31.15;13.70;;;;;;;10.38;88.88;101603.41;4931638;29;20449;-90
2022/05/12 04:38:34;;;;;;;31.15;13.57;;;;;;;10.44;88.89;101610.94;4916799;29;20023;-90
2022/05/12 04:40:59;;;;;;;27.23;12.52;;;;;;;10.49;88.46;101611.50;4933169;29;20065;-90
2022/05/12 04:43:24;;;;;;;23.30;13.63;;;;;;;10.51;88.92;101607.00;4931538;29;20076;-90
2022/05/12 04:45:50;;;;;;;25.90;13.45;;;;;;;10.54;89.00;101612.91;4917487;29;20499;-90
2022/05/12 04:48:15;;;;;;;28.27;13.77;;;;;;;10.57;89.42;101617.97;4934315;29;20551;-90
2022/05/12 04:50:40;;;;;;;25.85;13.93;;;;;;;10.59;89.62;101610.00;4930611;29;20032;-89
2022/05/12 04:53:06;;;;;;;27.35;13.60;;;;;;;10.64;88.80;101614.03;4932294;29;20313;-89
2022/05/12 04:55:33;;;;;;;31.48;15.07;;;;;;;10.67;90.00;101616.47;4934998;29;20063;-89
2022/05/12 04:57:59;;;;;;;31.75;14.82;;;;;;;10.72;90.16;101623.22;4934437;29;20051;-90
2022/05/12 05:00:31;;;;;;;37.35;15.95;;;;;;;10.74;90.72;101623.97;4933882;29;20059;-90
2022/05/12 05:02:57;;;;;;;30.85;15.90;;;;;;;10.80;90.18;101623.59;4930828;29;20040;-90
2022/05/12 05:05:23;;;;;;;29.92;15.93;;;;;;;10.85;90.70;101626.81;4931728;29;20510;-90
2022/05/12 05:07:49;;;;;;;39.95;17.63;;;;;;;10.87;91.28;101633.66;4915681;29;20040;-90
2022/05/12 05:10:14;;;;;;;34.53;17.35;;;;;;;10.94;90.89;101636.75;4933531;29;20079;-90
2022/05/12 05:12:42;;;;;;;31.08;16.45;;;;;;;10.98;90.61;101641.72;4933716;29;20080;-90
2022/05/12 05:15:09;;;;;;;32.78;18.33;;;;;;;11.04;91.45;101653.66;4933845;29;20484;-90
2022/05/12 05:17:37;;;;;;;35.50;18.10;;;;;;;11.09;91.02;101648.09;4931630;29;20400;-90
2022/05/12 05:20:08;;;;;;;37.83;19.08;;;;;;;11.13;91.52;101652.22;4931767;29;20032;-90
2022/05/12 05:22:34;;;;;;;37.55;18.52;;;;;;;11.18;91.05;101644.88;4933379;29;20099;-90
2022/05/12 05:25:00;;;;;;;38.28;18.33;;;;;;;11.24;90.98;101655.06;4922663;29;20432;-90
2022/05/12 05:27:25;;;;;;;37.75;19.20;;;;;;;11.32;91.19;101657.19;4932621;29;20055;-90
2022/05/12 05:29:51;;;;;;;31.65;19.73;;;;;;;11.39;91.63;101658.47;4916827;29;20059;-90
2022/05/12 05:32:20;;;;;;;36.38;19.45;;;;;;;11.45;91.32;101668.63;4914746;29;20039;-91
2022/05/12 05:34:46;;;;;;;37.50;20.05;;;;;;;11.52;91.30;101665.50;4915349;29;20477;-90
2022/05/12 05:37:11;;;;;;;40.50;20.85;;;;;;;11.60;91.44;101672.91;4932973;29;20023;-90
2022/05/12 05:39:37;;;;;;;37.90;20.25;;;;;;;11.68;91.47;101681.19;4934291;29;20034;-90
2022/05/12 05:42:07;;;;;;;35.67;20.25;;;;;;;11.75;91.69;101682.47;4916784;29;20528;-90
2022/05/12 05:44:35;;;;;;;33.70;20.67;;;;;;;11.81;91.22;101690.00;4916519;29;20115;-90
2022/05/12 05:47:02;;;;;;;36.72;21.73;;;;;;;11.87;91.14;101694.84;4934552;29;20023;-90
2022/05/12 05:49:32;;;;;;;40.00;22.50;;;;;;;11.96;91.33;101703.94;4932736;29;20118;-86
2022/05/12 05:54:42;;;;;;;37.42;22.45;;;;;;;12.13;90.94;101708.97;4924002;29;20357;-85
2022/05/12 05:57:08;;;;;;;37.33;22.23;;;;;;;12.19;90.84;101707.72;4923241;29;20039;-86
2022/05/12 05:59:34;;;;;;;39.72;23.65;;;;;;;12.24;90.50;101716.16;4913267;29;20134;-85
2022/05/12 06:01:59;;;;;;;39.10;22.35;;;;;;;12.31;90.33;101722.72;4924445;29;20030;-85
2022/05/12 06:04:24;;;;;;;39.58;22.25;;;;;;;12.37;90.02;101718.81;4924081;29;20032;-85
2022/05/12 06:06:50;;;;;;;44.47;24.45;;;;;;;12.44;89.95;101723.59;4924902;29;20124;-84
2022/05/12 06:09:15;;;;;;;43.53;23.25;;;;;;;12.51;89.76;101724.88;4926326;29;20030;-85
2022/05/12 06:11:43;;;;;;;38.50;22.60;;;;;;;12.60;89.30;101727.81;4906685;29;20020;-85
2022/05/12 06:14:08;;;;;;;39.70;24.20;;;;;;;12.65;89.56;101733.63;4923048;29;20614;-85
2022/05/12 06:16:35;;;;;;;42.60;23.77;;;;;;;12.68;89.78;101728.13;4923927;29;20114;-90
2022/05/12 06:19:00;;;;;;;36.45;22.55;;;;;;;12.78;89.38;101734.47;4910989;29;20039;-90
2022/05/12 06:21:26;;;;;;;45.90;24.75;;;;;;;12.87;89.53;101736.50;4924970;29;20028;-85
2022/05/12 06:23:51;;;;;;;32.70;23.35;;;;;;;12.98;88.74;101744.50;4909429;29;20020;-85
2022/05/12 06:26:16;;;;;;;39.60;23.63;;;;;;;13.11;88.37;101740.06;4924341;29;20035;-85
2022/05/12 06:28:45;;;;;;;37.22;23.35;;;;;;;13.16;87.36;101745.84;4932201;29;20385;-85
2022/05/12 06:31:12;;;;;;;36.42;23.15;;;;;;;13.30;87.24;101749.38;4928232;29;20020;-85
2022/05/12 06:33:38;;;;;;;31.95;22.70;;;;;;;13.35;86.25;101747.25;4933392;29;20037;-90
2022/05/12 06:36:05;;;;;;;37.55;23.05;;;;;;;13.39;85.92;101748.72;4931411;29;20031;-90
2022/05/12 06:38:31;;;;;;;32.85;23.48;;;;;;;13.43;85.52;101750.19;4906381;29;20024;-90
2022/05/12 06:40:56;;;;;;;32.53;22.63;;;;;;;13.48;84.61;101751.53;4923435;29;20055;-90
2022/05/12 06:43:23;;;;;;;32.38;22.52;;;;;;;13.53;84.33;101755.66;4922575;29;20119;-90
2022/05/12 06:45:49;;;;;;;34.05;22.35;;;;;;;13.61;83.56;101758.56;4929333;29;20019;-89
2022/05/12 06:48:15;;;;;;;36.75;21.48;;;;;;;13.67;82.59;101768.75;4930716;29;20477;-91
2022/05/12 06:50:40;;;;;;;32.50;21.30;;;;;;;13.70;82.67;101761.44;4899710;29;20035;-90
2022/05/12 06:53:06;;;;;;;34.47;21.67;;;;;;;13.76;82.05;101765.44;4915009;29;20326;-90
2022/05/12 06:55:31;;;;;;;32.75;21.63;;;;;;;13.82;81.94;101769.41;4926411;29;20026;-90
2022/05/12 06:57:57;;;;;;;29.80;20.88;;;;;;;13.92;79.78;101779.22;4931453;29;20128;-90
2022/05/12 07:00:23;;;;;;;34.42;22.08;;;;;;;13.99;79.89;101776.94;4929874;29;20465;-90
2022/05/12 07:02:49;;;;;;;31.85;20.85;;;;;;;14.28;78.51;101780.94;4930684;29;20035;-90
2022/05/12 07:05:19;;;;;;;28.58;20.70;;;;;;;14.54;77.45;101779.03;4916778;29;20038;-90
2022/05/12 07:07:44;;;;;;;28.83;19.33;;;;;;;14.62;75.81;101786.38;4928333;29;20031;-90
2022/05/12 07:10:12;;;;;;;25.92;20.05;;;;;;;14.81;75.86;101784.03;4931752;29;20399;-90
2022/05/12 07:12:37;;;;;;;26.10;20.50;;;;;;;15.13;74.58;101772.72;4928516;29;20031;-90
2022/05/12 07:15:04;;;;;;;27.27;18.65;;;;;;;15.60;72.15;101779.59;4928302;29;20449;-91
2022/05/12 07:17:30;;;;;;;26.95;19.08;;;;;;;15.99;71.23;101773.72;4928221;29;20087;-90
2022/05/12 07:28:11;;;;;;;21.77;15.98;;;;;;;15.51;70.01;101790.91;4931597;29;20047;-90
2022/05/12 07:31:00;;;;;;;23.15;16.73;;;;;;;15.66;69.87;101801.19;4930971;29;20032;-91
2022/05/12 07:33:22;;;;;;;22.83;16.15;;;;;;;16.29;68.31;101802.22;4931600;29;20038;-91
2022/05/12 07:35:47;;;;;;;24.13;16.17;;;;;;;16.53;66.93;101795.84;4928878;29;20106;-91
2022/05/12 07:38:13;;;;;;;21.25;13.40;;;;;;;16.64;64.96;101802.91;4913503;29;20441;-90
2022/05/12 07:40:38;;;;;;;19.23;12.35;;;;;;;16.90;62.99;101807.75;4932058;29;20024;-92
2022/05/12 07:43:07;;;;;;;16.88;11.40;;;;;;;17.05;61.72;101810.06;4930316;29;20039;-91
2022/05/12 07:45:32;;;;;;;18.77;12.68;;;;;;;17.36;61.35;101803.78;4915159;29;20032;-91
2022/05/12 07:47:57;;;;;;;22.38;13.63;;;;;;;17.90;60.79;101802.53;4931164;29;20047;-90
2022/05/12 07:50:24;;;;;;;19.33;13.90;;;;;;;18.30;60.29;101804.25;4931533;29;20142;-90
2022/05/12 07:52:49;;;;;;;18.40;12.23;;;;;;;18.70;56.19;101806.78;4914403;29;20110;-85
2022/05/12 07:55:14;;;;;;;16.58;11.20;;;;;;;18.95;55.48;101808.03;4930964;29;20534;-86
2022/05/12 07:57:41;;;;;;;16.58;11.90;;;;;;;19.20;54.43;101803.84;4930099;29;20261;-85
2022/05/12 08:00:07;;;;;;;15.30;11.23;;;;;;;19.58;54.02;101802.88;4931124;29;20027;-86
2022/05/12 08:02:33;;;;;;;15.82;11.55;;;;;;;19.87;51.76;101806.22;4927721;29;20401;-86
2022/05/12 08:04:58;;;;;;;16.13;10.07;;;;;;;20.12;50.37;101811.84;4919583;29;20027;-86
2022/05/12 08:07:24;;;;;;;15.32;9.88;;;;;;;20.31;50.87;101811.66;4928066;29;20421;-86
2022/05/12 08:09:50;;;;;;;14.82;10.15;;;;;;;20.56;48.75;101816.28;4927860;29;20385;-86
2022/05/12 08:12:16;;;;;;;14.48;10.20;;;;;;;20.71;48.92;101807.69;4931936;29;20024;-86
2022/05/12 08:14:42;;;;;;;14.18;9.65;;;;;;;20.81;48.01;101813.78;4935347;29;20032;-86
2022/05/12 08:17:10;;;;;;;14.93;9.73;;;;;;;20.84;47.78;101821.50;4934938;29;20444;-86
2022/05/12 08:19:35;;;;;;;14.40;10.18;;;;;;;20.82;47.42;101818.16;4933617;29;20094;-86
2022/05/12 08:22:01;;;;;;;15.10;11.18;;;;;;;21.20;47.12;101812.34;4918165;29;21591;-86
2022/05/12 08:24:26;;;;;;;15.50;9.95;;;;;;;21.23;45.92;101808.56;4934471;29;20031;-86
2022/05/12 08:26:52;;;;;;;10.98;6.55;;;;;;;21.40;45.01;101820.19;4932004;29;20492;-86
2022/05/12 08:29:17;;;;;;;12.90;6.68;;;;;;;21.09;45.21;101817.97;4935438;29;20110;-86
2022/05/12 08:31:42;;;;;;;13.68;6.43;;;;;;;21.19;44.45;101816.03;4933365;29;20034;-86
2022/05/12 08:34:08;;;;;;;10.85;6.15;;;;;;;21.35;43.91;101812.63;4933480;29;20468;-85
2022/05/12 08:36:33;;;;;;;9.05;5.68;;;;;;;21.72;44.00;101809.59;4935111;29;20027;-86
2022/05/12 08:38:58;;;;;;;13.57;6.93;;;;;;;22.01;42.92;101813.69;4917097;29;20325;-85
2022/05/12 08:41:42;;;;;;;11.68;6.40;;;;;;;21.79;45.28;101810.63;4931933;29;20028;-86
2022/05/12 08:44:13;;;;;;;10.98;5.32;;;;;;;21.05;44.17;101811.25;4930772;29;20043;-91
2022/05/12 08:46:47;;;;;;;8.77;5.95;;;;;;;20.53;44.64;101818.41;4915546;29;20413;-90
2022/05/12 08:49:29;;;;;;;9.65;4.88;;;;;;;20.70;45.56;101817.53;4916233;29;20039;-90
2022/05/12 08:52:22;;;;;;;7.88;3.80;;;;;;;20.92;46.33;101816.22;4919352;29;20384;-90
2022/05/12 08:54:56;;;;;;;14.88;7.30;;;;;;;20.79;44.28;101810.41;4937295;29;20330;-86
2022/05/12 08:57:32;;;;;;;9.65;6.60;;;;;;;20.35;45.63;101815.72;4935019;29;20122;-86
2022/05/12 09:00:01;;;;;;;11.65;6.00;;;;;;;19.65;45.64;101815.50;4918350;29;20539;-85
2022/05/12 09:02:46;;;;;;;10.75;6.00;;;;;;;19.38;46.92;101834.97;4919995;29;20023;-86
2022/05/12 09:05:15;;;;;;;11.43;6.00;;;;;;;18.92;47.65;101826.97;4914446;29;20050;-86
2022/05/12 09:07:44;;;;;;;10.57;6.20;;;;;;;18.85;47.81;101836.53;4934597;29;20030;-86
2022/05/12 09:10:49;;;;;;;9.93;6.05;;;;;;;19.38;48.02;101832.31;4934366;29;20036;-85
2022/05/12 09:13:23;;;;;;;11.07;6.93;;;;;;;20.12;45.87;101825.19;4931094;29;20067;-85
2022/05/12 09:16:01;;;;;;;10.07;6.10;;;;;;;20.64;44.68;101829.72;4931393;29;20043;-86
2022/05/12 09:18:33;;;;;;;10.30;6.60;;;;;;;21.16;42.22;101827.03;4943324;29;20034;-90
2022/05/12 09:21:14;;;;;;;12.60;6.53;;;;;;;21.38;41.48;101827.53;4935778;29;20547;-85
2022/05/12 09:23:40;;;;;;;10.75;6.60;;;;;;;20.85;42.19;101836.56;4924898;29;20032;-85
2022/05/12 09:26:32;;;;;;;10.27;6.10;;;;;;;20.47;44.74;101835.94;4918063;29;20024;-86
2022/05/12 09:29:08;;;;;;;9.95;5.90;;;;;;;19.99;43.99;101831.72;4930954;29;20052;-85
2022/05/12 09:31:34;;;;;;;8.55;5.20;;;;;;;19.51;43.81;101834.63;4932190;29;20055;-86
2022/05/12 09:34:19;;;;;;;9.02;5.75;;;;;;;19.36;46.10;101831.63;4915577;29;20059;-86
2022/05/12 09:36:44;;;;;;;9.75;6.00;;;;;;;19.73;44.54;101833.44;4933878;29;20035;-86
2022/05/12 09:39:10;;;;;;;8.20;5.10;;;;;;;19.90;41.97;101834.47;4933600;29;20028;-85
2022/05/12 09:41:44;;;;;;;8.82;5.55;;;;;;;20.14;42.29;101820.53;4930970;29;20477;-85
2022/05/12 09:44:17;;;;;;;9.95;6.30;;;;;;;20.62;43.13;101826.34;4932914;29;20035;-86
2022/05/12 09:46:55;;;;;;;12.35;6.65;;;;;;;20.87;42.60;101826.53;4931880;29;20051;-90
2022/05/12 09:49:23;;;;;;;9.00;4.80;;;;;;;21.17;39.51;101823.38;4932690;29;20026;-90
2022/05/12 09:51:49;;;;;;;6.32;4.10;;;;;;;21.29;39.63;101807.94;4934045;29;20020;-90
2022/05/12 09:54:28;;;;;;;11.13;4.38;;;;;;;21.16;38.91;101820.84;4934140;29;20038;-90
2022/05/12 09:57:02;;;;;;;8.80;3.80;;;;;;;20.91;38.97;101820.72;4916803;29;20540;-85
2022/05/12 09:59:31;;;;;;;8.30;3.55;;;;;;;20.97;38.19;101813.91;4933241;29;20059;-90
2022/05/12 10:02:04;;;;;;;7.43;3.80;;;;;;;21.37;39.42;101804.44;4932646;29;20026;-86
2022/05/12 10:10:15;;;;;;;7.25;2.03;;;;;;;21.16;37.46;101819.03;4930756;29;20087;-92
2022/05/12 10:13:04;;;;;;;10.57;2.70;;;;;;;20.86;38.66;101822.19;4927217;29;20032;-93
2022/05/12 10:15:33;;;;;;;6.35;2.33;;;;;;;20.36;39.38;101830.75;4931138;29;20692;-91
2022/05/12 10:17:58;;;;;;;10.30;4.53;;;;;;;20.05;39.75;101826.81;4929881;29;20028;-87
2022/05/12 10:20:26;;;;;;;8.50;3.97;;;;;;;19.93;41.29;101824.31;4932709;29;20098;-91
2022/05/12 10:22:55;;;;;;;10.15;4.30;;;;;;;19.95;41.26;101827.69;4927591;29;20371;-91
2022/05/12 10:25:56;;;;;;;6.40;4.07;;;;;;;20.03;42.00;101824.28;4913876;29;20028;-87
2022/05/12 10:28:43;;;;;;;6.78;3.50;;;;;;;20.05;40.05;101826.81;4927521;29;20036;-91
2022/05/12 10:31:09;;;;;;;7.90;3.80;;;;;;;19.97;41.38;101824.84;4925008;29;20066;-91
2022/05/12 10:33:43;;;;;;;10.95;4.65;;;;;;;20.14;41.76;101824.06;4929050;29;20028;-91
2022/05/12 10:36:29;;;;;;;6.15;3.60;;;;;;;20.50;41.37;101822.25;4926999;29;20480;-87
2022/05/12 10:39:09;;;;;;;6.43;3.10;;;;;;;20.90;40.08;101818.19;4926420;29;20514;-91
2022/05/12 10:41:42;;;;;;;9.38;3.33;;;;;;;20.87;38.25;101821.19;4929430;29;20031;-91
2022/05/12 10:44:18;;;;;;;5.30;2.78;;;;;;;20.75;39.71;101814.41;4930268;29;20111;-91
2022/05/12 10:46:54;;;;;;;5.70;2.85;;;;;;;20.59;38.81;101821.31;4929497;29;20126;-87
2022/05/12 10:49:36;;;;;;;7.95;2.90;;;;;;;20.58;39.47;101819.63;4927654;29;20046;-90
2022/05/12 10:52:07;;;;;;;5.97;2.53;;;;;;;20.54;38.67;101812.91;4931666;29;20090;-87
2022/05/12 10:54:48;;;;;;;7.28;2.55;;;;;;;20.38;38.65;101817.25;4930113;29;20035;-91
2022/05/12 10:57:42;;;;;;;8.20;3.72;;;;;;;20.24;39.41;101814.13;4920616;29;20460;-91
2022/05/12 11:00:33;;;;;;;8.90;3.72;;;;;;;20.12;39.09;101818.03;4930667;29;20449;-90
2022/05/12 11:03:11;;;;;;;8.32;3.70;;;;;;;20.49;40.01;101815.22;4930478;29;20083;-90
2022/05/12 11:05:45;;;;;;;9.13;4.05;;;;;;;20.82;39.53;101807.44;4926363;29;20103;-90
2022/05/12 11:08:32;;;;;;;8.18;3.90;;;;;;;21.18;38.58;101806.31;4931368;29;20106;-90
2022/05/12 11:11:01;;;;;;;8.60;4.00;;;;;;;21.14;37.22;101798.75;4931560;29;20031;-90
2022/05/12 11:13:41;;;;;;;6.40;3.30;;;;;;;21.06;38.28;101796.88;4930830;29;20114;-91
2022/05/12 11:16:15;;;;;;;5.97;3.03;;;;;;;20.89;37.42;101808.50;4913946;29;20732;-90
2022/05/12 11:18:53;;;;;;;13.05;3.42;;;;;;;20.74;37.78;101808.22;4931492;29;20039;-89
2022/05/12 11:21:25;;;;;;;5.40;3.00;;;;;;;20.97;37.11;101805.88;4932438;29;20028;-87
2022/05/12 11:23:55;;;;;;;5.90;3.90;;;;;;;21.33;37.05;101797.75;4928522;29;20500;-90
2022/05/12 11:26:45;;;;;;;7.30;3.60;;;;;;;21.65;38.60;101791.69;4931952;29;20407;-90
2022/05/12 11:29:41;;;;;;;6.65;3.67;;;;;;;21.78;36.64;101798.25;4930719;29;20032;-90
2022/05/12 11:32:27;;;;;;;6.70;3.35;;;;;;;21.77;37.03;101788.53;4913585;29;20567;-90
2022/05/12 11:35:00;;;;;;;8.18;3.50;;;;;;;21.93;35.58;101790.38;4920781;29;20399;-90
2022/05/12 11:37:28;;;;;;;8.48;3.05;;;;;;;22.01;35.24;101773.47;4930535;29;20407;-90
2022/05/12 11:39:59;;;;;;;9.32;2.75;;;;;;;21.89;35.75;101784.53;4931901;29;20042;-89
2022/05/12 11:44:24;;;;;;;5.47;2.80;;;;;;;21.57;34.70;101771.88;4932250;29;20036;-89
2022/05/12 11:45:42;;;;;;;6.72;2.47;;;;;;;21.55;36.26;101781.06;4931438;29;20047;-90